Chatsworth, California
Current Conditions -  °F | °C
As of 5:51 PM on Friday 21 Nov 2014 (Local Time) from KVNY Reporting Station
Clear Clear  
Wind Chill: 64°   Ceiling: Unl
Heat Index: 64°   Visibility: 10mi
Dew Point: 37°   Wind: 13mph
Humidity: 37%   Direction: 10°N
Pressure: 29.98"   Gusts: NA
Location:  34.26°N, 118.6°W
Report Text: KVNY 220151Z 01011KT 10SM CLR 18/03 A2998 RMK AO2 SLP149 T01780028
Loading
Personal Weather Stations






























Interactive Weather Map New forecast layout! Learn more

10-Day Weather Forecast

Advertisements
Track Severe Weather on mobile